createdAt,value
2023-03-25T00:01:35.613Z,13.89
2023-03-25T00:04:04.600Z,13.88
2023-03-25T00:06:35.873Z,13.91
2023-03-25T00:09:04.512Z,13.90
2023-03-25T00:11:31.878Z,13.87
2023-03-25T00:13:59.084Z,13.93
2023-03-25T00:16:26.914Z,13.93
2023-03-25T00:18:54.458Z,13.88
2023-03-25T00:21:23.564Z,13.92
2023-03-25T00:23:50.841Z,13.87
2023-03-25T00:26:18.183Z,13.88
2023-03-25T00:28:45.463Z,13.93
2023-03-25T00:31:15.218Z,13.92
2023-03-25T00:33:42.494Z,13.96
2023-03-25T00:36:13.959Z,14.01
2023-03-25T00:38:43.441Z,14.05
2023-03-25T00:41:23.523Z,14.06
2023-03-25T00:43:53.185Z,14.03
2023-03-25T00:46:23.049Z,14.12
2023-03-25T00:48:51.064Z,14.12
2023-03-25T00:51:22.301Z,14.12
2023-03-25T00:53:55.986Z,14.05
2023-03-25T00:56:24.330Z,14.04
2023-03-25T00:58:52.436Z,14.04
2023-03-25T01:01:29.394Z,13.91
2023-03-25T01:03:59.430Z,13.73
2023-03-25T01:06:29.768Z,13.65
2023-03-25T01:08:58.260Z,13.54
2023-03-25T01:11:28.653Z,13.48
2023-03-25T01:14:00.250Z,13.34
2023-03-25T01:16:28.967Z,13.23
2023-03-25T01:18:56.820Z,13.23
2023-03-25T01:21:25.610Z,13.25
2023-03-25T01:23:52.932Z,13.31
2023-03-25T01:26:20.631Z,13.33
2023-03-25T01:28:48.352Z,13.34
2023-03-25T01:31:18.058Z,13.40
2023-03-25T01:33:45.824Z,13.33
2023-03-25T01:36:13.883Z,13.25
2023-03-25T01:38:44.126Z,13.22
2023-03-25T01:41:11.742Z,13.14
2023-03-25T01:43:39.448Z,13.06
2023-03-25T01:46:14.548Z,13.08
2023-03-25T01:48:44.620Z,13.14
2023-03-25T01:51:20.631Z,13.12
2023-03-25T01:53:49.089Z,13.12
2023-03-25T01:56:22.294Z,13.13
2023-03-25T01:58:52.083Z,13.10
2023-03-25T02:01:22.569Z,13.08
2023-03-25T02:03:53.283Z,13.08
2023-03-25T02:06:29.333Z,13.11
2023-03-25T02:09:00.196Z,13.13
2023-03-25T02:11:29.956Z,13.09
2023-03-25T02:14:02.453Z,13.12
2023-03-25T02:16:50.676Z,13.07
2023-03-25T02:19:51.710Z,13.10
2023-03-25T02:22:42.475Z,12.95
2023-03-25T02:25:35.755Z,12.94
2023-03-25T02:28:10.467Z,12.88
2023-03-25T02:31:06.877Z,12.80
2023-03-25T02:33:37.160Z,12.83
2023-03-25T02:36:30.493Z,12.75
2023-03-25T02:39:27.344Z,12.71
2023-03-25T02:42:09.500Z,12.75
2023-03-25T02:44:41.925Z,12.70
2023-03-25T02:47:14.123Z,12.61
2023-03-25T02:49:58.696Z,12.49
2023-03-25T02:52:31.797Z,12.39
2023-03-25T02:55:05.468Z,12.38
2023-03-25T02:57:36.844Z,12.42
2023-03-25T03:00:15.833Z,12.29
2023-03-25T03:03:05.165Z,12.29
2023-03-25T03:05:37.558Z,12.23
2023-03-25T03:08:39.931Z,12.19
2023-03-25T03:11:22.613Z,12.18
2023-03-25T03:14:02.807Z,12.15
2023-03-25T03:17:05.660Z,12.12
2023-03-25T03:19:42.151Z,12.15
2023-03-25T03:22:15.384Z,12.13
2023-03-25T03:24:51.730Z,12.16
2023-03-25T03:27:24.191Z,12.23
2023-03-25T03:30:14.021Z,12.32
2023-03-25T03:33:13.674Z,12.38
2023-03-25T03:35:52.263Z,12.40
2023-03-25T03:38:23.846Z,12.40
2023-03-25T03:40:56.042Z,12.45
2023-03-25T03:43:41.953Z,12.46
2023-03-25T03:46:28.657Z,12.55
2023-03-25T03:48:59.218Z,12.53
2023-03-25T03:51:26.717Z,12.54
2023-03-25T03:53:58.703Z,12.54
2023-03-25T03:56:37.762Z,12.47
2023-03-25T03:59:13.875Z,12.46
2023-03-25T04:01:49.213Z,12.34
2023-03-25T04:04:22.658Z,12.13
2023-03-25T04:06:58.228Z,11.91
2023-03-25T04:09:35.343Z,11.81
2023-03-25T04:12:18.260Z,11.70
2023-03-25T04:14:46.976Z,11.58
2023-03-25T04:17:14.582Z,11.53
2023-03-25T04:19:41.855Z,11.39
2023-03-25T04:22:09.456Z,11.32
2023-03-25T04:24:38.300Z,11.27
2023-03-25T04:27:05.794Z,11.25
2023-03-25T04:29:34.502Z,11.15
2023-03-25T04:32:02.382Z,11.09
2023-03-25T04:34:29.854Z,11.11
2023-03-25T04:36:58.494Z,11.20
2023-03-25T04:39:29.978Z,11.33
2023-03-25T04:41:57.598Z,11.35
2023-03-25T04:44:26.233Z,11.35
2023-03-25T04:46:53.859Z,11.41
2023-03-25T04:49:22.982Z,11.49
2023-03-25T04:51:52.790Z,11.60
2023-03-25T04:54:21.741Z,11.68
2023-03-25T04:56:51.479Z,11.75
2023-03-25T04:59:20.309Z,11.82
2023-03-25T05:01:48.601Z,11.94
2023-03-25T05:04:18.013Z,12.03
2023-03-25T05:06:48.758Z,12.17
2023-03-25T05:09:24.855Z,12.29
2023-03-25T05:11:53.923Z,12.33
2023-03-25T05:14:22.320Z,12.41
2023-03-25T05:16:53.948Z,12.46
2023-03-25T05:19:22.117Z,12.50
2023-03-25T05:21:50.023Z,12.61
2023-03-25T05:24:17.962Z,12.64
2023-03-25T05:26:45.671Z,12.79
2023-03-25T05:29:16.048Z,12.88
2023-03-25T05:31:46.342Z,12.94
2023-03-25T05:34:15.032Z,13.16
2023-03-25T05:36:42.440Z,13.34
2023-03-25T05:39:11.171Z,13.36
2023-03-25T05:41:41.833Z,13.43
2023-03-25T05:44:15.064Z,13.62
2023-03-25T05:46:42.420Z,13.73
2023-03-25T05:49:10.090Z,13.81
2023-03-25T05:51:38.052Z,13.83
2023-03-25T05:54:11.918Z,13.84
2023-03-25T05:56:40.293Z,13.87
2023-03-25T05:59:08.642Z,13.99
2023-03-25T06:01:42.302Z,14.10
2023-03-25T06:04:13.320Z,14.17
2023-03-25T06:06:41.629Z,14.34
2023-03-25T06:09:09.132Z,14.44
2023-03-25T06:11:38.889Z,14.61
2023-03-25T06:14:07.221Z,14.74
2023-03-25T06:16:36.091Z,14.87
2023-03-25T06:19:04.242Z,15.08
2023-03-25T06:21:35.128Z,15.16
2023-03-25T06:24:03.132Z,15.11
2023-03-25T06:26:33.009Z,15.21
2023-03-25T06:29:03.310Z,15.21
2023-03-25T06:31:34.383Z,15.26
2023-03-25T06:34:02.110Z,15.22
2023-03-25T06:36:29.696Z,15.21
2023-03-25T06:38:58.645Z,15.09
2023-03-25T06:41:26.776Z,15.02
2023-03-25T06:44:07.986Z,14.89
2023-03-25T06:46:47.921Z,14.92
2023-03-25T06:49:29.809Z,14.97
2023-03-25T06:51:58.773Z,14.97
2023-03-25T06:54:26.250Z,15.08
2023-03-25T06:56:54.127Z,15.16
2023-03-25T06:59:21.468Z,15.20
2023-03-25T07:01:48.886Z,15.19
2023-03-25T07:04:17.862Z,15.22
2023-03-25T07:06:47.020Z,15.13
2023-03-25T07:09:14.528Z,15.01
2023-03-25T07:11:43.450Z,14.90
2023-03-25T07:14:11.020Z,14.90
2023-03-25T07:16:38.669Z,14.79
2023-03-25T07:19:06.315Z,14.67
2023-03-25T07:21:34.017Z,14.70
2023-03-25T07:24:02.003Z,14.78
2023-03-25T07:26:29.337Z,14.83
2023-03-25T07:28:57.188Z,14.96
2023-03-25T07:31:25.316Z,15.24
2023-03-25T07:33:52.990Z,15.41
2023-03-25T07:36:22.629Z,15.69
2023-03-25T07:38:50.383Z,15.64
2023-03-25T07:41:18.053Z,15.66
2023-03-25T07:44:05.999Z,15.69
2023-03-25T07:46:33.258Z,15.70
2023-03-25T07:49:01.514Z,15.92
2023-03-25T07:51:30.717Z,15.75
2023-03-25T07:54:04.924Z,15.84
2023-03-25T07:56:33.243Z,15.88
2023-03-25T07:59:01.521Z,15.63
2023-03-25T08:01:29.198Z,15.64
2023-03-25T08:03:57.077Z,15.79
2023-03-25T08:06:24.880Z,15.66
2023-03-25T08:08:52.378Z,15.59
2023-03-25T08:11:20.209Z,15.48
2023-03-25T08:13:48.032Z,15.46
2023-03-25T08:16:15.958Z,15.57
2023-03-25T08:18:45.400Z,15.55
2023-03-25T08:21:13.934Z,15.48
2023-03-25T08:23:41.603Z,15.50
2023-03-25T08:26:12.104Z,15.62
2023-03-25T08:28:39.427Z,15.47
2023-03-25T08:31:09.089Z,15.42
2023-03-25T08:33:39.758Z,15.40
2023-03-25T08:36:10.582Z,15.48
2023-03-25T08:38:38.513Z,15.48
2023-03-25T08:41:05.847Z,15.40
2023-03-25T08:43:33.186Z,15.35
2023-03-25T08:46:01.093Z,15.48
2023-03-25T08:48:28.696Z,15.45
2023-03-25T08:50:56.824Z,15.53
2023-03-25T08:53:25.348Z,15.61
2023-03-25T08:55:57.590Z,15.75
2023-03-25T08:58:26.223Z,15.81
2023-03-25T09:00:56.169Z,15.88
2023-03-25T09:03:24.590Z,16.33
2023-03-25T09:05:51.960Z,16.71
2023-03-25T09:08:19.806Z,17.01
2023-03-25T09:10:47.969Z,17.16
2023-03-25T09:13:18.547Z,17.19
2023-03-25T09:15:46.655Z,16.99
2023-03-25T09:18:14.225Z,17.08
2023-03-25T09:20:41.609Z,17.01
2023-03-25T09:23:10.181Z,17.07
2023-03-25T09:25:38.690Z,17.03
2023-03-25T09:28:06.385Z,16.97
2023-03-25T09:30:34.118Z,16.78
2023-03-25T09:33:01.928Z,16.81
2023-03-25T09:35:29.845Z,16.81
2023-03-25T09:37:57.302Z,16.75
2023-03-25T09:40:25.287Z,16.81
2023-03-25T09:43:01.401Z,17.14
2023-03-25T09:45:43.903Z,17.14
2023-03-25T09:48:36.978Z,17.26
2023-03-25T09:51:19.556Z,17.45
2023-03-25T09:53:51.040Z,17.52
2023-03-25T09:56:23.262Z,17.57
2023-03-25T09:59:00.778Z,17.68
2023-03-25T10:01:35.448Z,17.95
2023-03-25T10:04:33.912Z,18.11
2023-03-25T10:07:29.065Z,18.25
2023-03-25T10:10:24.793Z,18.49
2023-03-25T10:13:16.977Z,18.51
2023-03-25T10:15:59.887Z,18.78
2023-03-25T10:18:28.376Z,18.95
2023-03-25T10:21:24.121Z,19.02
2023-03-25T10:24:02.806Z,19.29
2023-03-25T10:26:53.153Z,19.50
2023-03-25T10:29:27.630Z,19.42
2023-03-25T10:32:02.204Z,19.21
2023-03-25T10:34:56.753Z,19.32
2023-03-25T10:37:34.298Z,19.28
2023-03-25T10:40:25.756Z,19.36
2023-03-25T10:42:58.591Z,19.61
2023-03-25T10:45:29.025Z,19.70
2023-03-25T10:48:06.372Z,19.86
2023-03-25T10:50:33.707Z,19.99
2023-03-25T10:53:01.451Z,20.09
2023-03-25T10:55:35.191Z,20.28
2023-03-25T10:58:03.308Z,20.11
2023-03-25T11:00:30.884Z,20.09
2023-03-25T11:02:58.296Z,20.13
2023-03-25T11:05:32.178Z,20.42
2023-03-25T11:08:18.274Z,20.59
2023-03-25T11:10:56.096Z,20.69
2023-03-25T11:13:31.412Z,20.62
2023-03-25T11:16:02.498Z,20.58
2023-03-25T11:18:40.431Z,20.33
2023-03-25T11:21:13.545Z,20.24
2023-03-25T11:23:48.478Z,20.20
2023-03-25T11:26:25.109Z,20.13
2023-03-25T11:29:02.125Z,19.84
2023-03-25T11:31:35.291Z,19.42
2023-03-25T11:34:12.357Z,19.21
2023-03-25T11:36:55.775Z,19.01
2023-03-25T11:39:23.462Z,18.85
2023-03-25T11:41:52.867Z,18.56
2023-03-25T11:44:32.124Z,18.53
2023-03-25T11:47:06.714Z,18.45
2023-03-25T11:49:41.038Z,18.31
2023-03-25T11:52:22.890Z,18.20
2023-03-25T11:54:54.470Z,18.21
2023-03-25T11:57:29.609Z,18.30
2023-03-25T12:00:13.154Z,18.34
2023-03-25T12:02:41.382Z,18.43
2023-03-25T12:05:09.063Z,18.53
2023-03-25T12:07:51.716Z,18.58
2023-03-25T12:10:29.042Z,18.64
2023-03-25T12:13:24.414Z,18.73
2023-03-25T12:16:04.771Z,18.71
2023-03-25T12:18:57.455Z,18.73
2023-03-25T12:21:30.647Z,18.77
2023-03-25T12:24:38.572Z,18.75
2023-03-25T12:27:15.088Z,18.80
2023-03-25T12:30:07.124Z,18.63
2023-03-25T12:33:02.597Z,18.16
2023-03-25T12:36:04.965Z,18.04
2023-03-25T12:39:09.334Z,17.86
2023-03-25T12:41:54.993Z,17.65
2023-03-25T12:44:47.032Z,17.38
2023-03-25T12:47:38.846Z,17.04
2023-03-25T12:50:37.253Z,16.76
2023-03-25T12:53:15.777Z,16.56
2023-03-25T12:56:04.975Z,16.41
2023-03-25T12:58:46.834Z,16.35
2023-03-25T13:01:36.963Z,16.39
2023-03-25T13:04:17.347Z,16.55
2023-03-25T13:07:00.542Z,16.70
2023-03-25T13:09:42.926Z,17.01
2023-03-25T13:12:18.353Z,17.32
2023-03-25T13:14:57.380Z,17.64
2023-03-25T13:17:34.479Z,17.96
2023-03-25T13:20:10.961Z,18.26
2023-03-25T13:22:45.206Z,18.52
2023-03-25T13:25:26.988Z,18.73
2023-03-25T13:27:58.757Z,18.93
2023-03-25T13:30:35.286Z,19.19
2023-03-25T13:33:15.257Z,19.22
2023-03-25T13:35:56.645Z,19.26
2023-03-25T13:38:34.673Z,19.42
2023-03-25T13:41:12.274Z,19.45
2023-03-25T13:43:54.989Z,19.42
2023-03-25T13:46:26.726Z,19.39
2023-03-25T13:49:07.531Z,19.23
2023-03-25T13:51:35.396Z,19.32
2023-03-25T13:54:12.264Z,19.37
2023-03-25T13:56:46.194Z,19.29
2023-03-25T13:59:17.654Z,19.18
2023-03-25T14:02:17.510Z,18.95
2023-03-25T14:05:26.985Z,18.77
2023-03-25T14:08:00.701Z,18.68
2023-03-25T14:11:20.438Z,18.56
2023-03-25T14:14:01.668Z,18.31
2023-03-25T14:16:36.409Z,18.07
2023-03-25T14:19:10.552Z,18.02
2023-03-25T14:21:38.800Z,17.79
2023-03-25T14:24:35.551Z,17.54
2023-03-25T14:27:16.492Z,17.23
2023-03-25T14:29:52.837Z,17.08
2023-03-25T14:32:20.477Z,17.00
2023-03-25T14:34:52.965Z,16.96
2023-03-25T14:37:27.685Z,16.59
2023-03-25T14:40:01.026Z,16.59
2023-03-25T14:42:50.232Z,16.53
2023-03-25T14:45:32.913Z,16.56
2023-03-25T14:48:01.134Z,16.46
2023-03-25T14:50:28.751Z,16.53
2023-03-25T14:53:00.858Z,16.54
2023-03-25T14:55:42.598Z,16.49
2023-03-25T14:58:26.765Z,16.56
2023-03-25T15:01:04.763Z,16.62
2023-03-25T15:03:36.973Z,16.64
2023-03-25T15:06:07.320Z,16.64
2023-03-25T15:08:39.550Z,16.61
2023-03-25T15:11:16.057Z,16.59
2023-03-25T15:13:53.124Z,16.53
2023-03-25T15:16:35.119Z,16.43
2023-03-25T15:19:04.683Z,16.29
2023-03-25T15:21:35.588Z,16.12
2023-03-25T15:24:10.509Z,15.99
2023-03-25T15:26:45.031Z,15.84
2023-03-25T15:29:28.785Z,15.71
2023-03-25T15:32:09.285Z,15.59
2023-03-25T15:34:56.797Z,15.59
2023-03-25T15:37:48.889Z,15.58
2023-03-25T15:40:31.440Z,15.52
2023-03-25T15:43:40.646Z,15.42
2023-03-25T15:46:52.137Z,15.35
2023-03-25T15:49:41.129Z,15.26
2023-03-25T15:52:50.244Z,15.08
2023-03-25T15:55:24.801Z,14.92
2023-03-25T15:57:59.754Z,14.69
2023-03-25T16:00:42.632Z,14.52
2023-03-25T16:03:19.908Z,14.28
2023-03-25T16:06:08.274Z,14.13
2023-03-25T16:08:41.378Z,14.01
2023-03-25T16:11:22.005Z,13.88
2023-03-25T16:14:08.365Z,13.77
2023-03-25T16:16:39.776Z,13.67
2023-03-25T16:19:12.053Z,13.58
2023-03-25T16:21:39.712Z,13.51
2023-03-25T16:24:09.619Z,13.39
2023-03-25T16:26:40.772Z,13.34
2023-03-25T16:29:29.671Z,13.26
2023-03-25T16:32:03.005Z,13.17
2023-03-25T16:34:40.992Z,13.08
2023-03-25T16:37:11.509Z,13.06
2023-03-25T16:39:38.984Z,13.02
2023-03-25T16:42:20.438Z,12.99
2023-03-25T16:44:48.002Z,12.97
2023-03-25T16:47:16.469Z,12.94
2023-03-25T16:49:48.818Z,12.91
2023-03-25T16:52:19.773Z,12.87
2023-03-25T16:55:26.831Z,12.83
2023-03-25T16:57:54.583Z,12.77
2023-03-25T17:00:24.751Z,12.74
2023-03-25T17:02:54.257Z,12.70
2023-03-25T17:05:26.926Z,12.69
2023-03-25T17:08:05.065Z,12.68
2023-03-25T17:10:44.091Z,12.67
2023-03-25T17:13:11.779Z,12.66
2023-03-25T17:15:39.323Z,12.66
2023-03-25T17:18:12.437Z,12.56
2023-03-25T17:20:46.316Z,12.39
2023-03-25T17:23:37.401Z,12.29
2023-03-25T17:26:08.757Z,12.24
2023-03-25T17:28:40.419Z,12.33
2023-03-25T17:31:36.730Z,12.36
2023-03-25T17:34:32.205Z,12.33
2023-03-25T17:37:03.911Z,12.25
2023-03-25T17:39:33.678Z,12.16
2023-03-25T17:42:14.450Z,12.22
2023-03-25T17:44:45.523Z,12.18
2023-03-25T17:47:17.953Z,12.22
2023-03-25T17:49:45.222Z,12.20
2023-03-25T17:52:12.639Z,12.19
2023-03-25T17:54:39.729Z,12.20
2023-03-25T17:57:14.500Z,12.21
2023-03-25T17:59:41.817Z,12.18
2023-03-25T18:02:12.365Z,12.16
2023-03-25T18:04:39.658Z,12.14
2023-03-25T18:07:07.739Z,12.12
2023-03-25T18:09:35.507Z,12.11
2023-03-25T18:12:02.645Z,12.11
2023-03-25T18:14:29.985Z,12.08
2023-03-25T18:16:57.299Z,12.10
2023-03-25T18:19:27.712Z,12.12
2023-03-25T18:21:55.374Z,12.12
2023-03-25T18:24:22.953Z,12.15
2023-03-25T18:26:50.745Z,12.16
2023-03-25T18:29:28.550Z,12.06
2023-03-25T18:31:55.899Z,12.01
2023-03-25T18:34:25.736Z,12.07
2023-03-25T18:36:54.146Z,12.08
2023-03-25T18:39:27.094Z,12.09
2023-03-25T18:41:54.355Z,12.10
2023-03-25T18:44:21.760Z,12.10
2023-03-25T18:46:49.190Z,12.11
2023-03-25T18:49:18.768Z,12.11
2023-03-25T18:51:48.476Z,12.10
2023-03-25T18:54:15.888Z,12.10
2023-03-25T18:56:43.475Z,12.08
2023-03-25T18:59:15.803Z,12.07
2023-03-25T19:01:43.227Z,12.07
2023-03-25T19:04:10.779Z,12.05
2023-03-25T19:06:39.532Z,12.06
2023-03-25T19:09:11.521Z,12.05
2023-03-25T19:11:38.973Z,12.06
2023-03-25T19:14:06.319Z,12.05
2023-03-25T19:16:33.616Z,12.02
2023-03-25T19:19:01.647Z,12.00
2023-03-25T19:21:28.977Z,12.00
2023-03-25T19:23:56.390Z,12.01
2023-03-25T19:26:23.522Z,12.02
2023-03-25T19:28:50.926Z,12.03
2023-03-25T19:31:19.429Z,12.01
2023-03-25T19:33:46.920Z,12.00
2023-03-25T19:36:19.279Z,12.01
2023-03-25T19:38:47.134Z,12.00
2023-03-25T19:41:18.189Z,11.99
2023-03-25T19:43:46.076Z,12.00
2023-03-25T19:46:13.751Z,12.00
2023-03-25T19:48:41.116Z,12.00
2023-03-25T19:51:08.708Z,11.97
2023-03-25T19:53:36.213Z,11.98
2023-03-25T19:56:05.401Z,11.94
2023-03-25T19:58:35.052Z,11.94
2023-03-25T20:01:02.678Z,11.94
2023-03-25T20:03:31.686Z,11.91
2023-03-25T20:06:02.857Z,11.93
2023-03-25T20:08:30.552Z,11.94
2023-03-25T20:10:59.226Z,11.92
2023-03-25T20:13:26.768Z,11.91
2023-03-25T20:15:54.648Z,11.91
2023-03-25T20:18:25.331Z,11.93
2023-03-25T20:20:53.047Z,11.93
2023-03-25T20:23:20.542Z,11.90
2023-03-25T20:25:49.884Z,11.87
2023-03-25T20:28:18.636Z,11.88
2023-03-25T20:30:46.628Z,11.90
2023-03-25T20:33:13.899Z,11.90
2023-03-25T20:35:41.948Z,11.90
2023-03-25T20:38:10.047Z,11.90
2023-03-25T20:40:44.668Z,11.87
2023-03-25T20:43:14.757Z,11.84
2023-03-25T20:45:43.896Z,11.79
2023-03-25T20:48:11.317Z,11.74
2023-03-25T20:50:38.921Z,11.68
2023-03-25T20:53:06.204Z,11.68
2023-03-25T20:55:33.280Z,11.64
2023-03-25T20:58:01.115Z,11.69
2023-03-25T21:00:28.620Z,11.69
2023-03-25T21:02:55.994Z,11.71
2023-03-25T21:05:23.477Z,11.71
2023-03-25T21:07:51.245Z,11.75
2023-03-25T21:10:20.386Z,11.80
2023-03-25T21:12:48.173Z,11.79
2023-03-25T21:15:15.769Z,11.82
2023-03-25T21:17:43.561Z,11.87
2023-03-25T21:20:12.127Z,11.88
2023-03-25T21:22:44.046Z,11.85
2023-03-25T21:25:15.217Z,11.81
2023-03-25T21:27:45.472Z,11.80
2023-03-25T21:30:14.156Z,11.76
2023-03-25T21:32:42.353Z,11.76
2023-03-25T21:35:10.814Z,11.72
2023-03-25T21:37:39.958Z,11.75
2023-03-25T21:40:11.226Z,11.77
2023-03-25T21:42:41.721Z,11.79
2023-03-25T21:45:12.014Z,11.78
2023-03-25T21:47:40.300Z,11.78
2023-03-25T21:50:10.603Z,11.79
2023-03-25T21:52:43.423Z,11.82
2023-03-25T21:55:11.560Z,11.84
2023-03-25T21:57:39.765Z,11.84
2023-03-25T22:00:08.860Z,11.83
2023-03-25T22:02:43.596Z,11.83
2023-03-25T22:05:12.904Z,11.83
2023-03-25T22:07:41.661Z,11.84
2023-03-25T22:10:10.624Z,11.83
2023-03-25T22:12:38.420Z,11.82
2023-03-25T22:15:06.772Z,11.81
2023-03-25T22:17:34.298Z,11.81
2023-03-25T22:20:01.831Z,11.79
2023-03-25T22:22:30.320Z,11.78
2023-03-25T22:24:58.115Z,11.79
2023-03-25T22:27:26.105Z,11.74
2023-03-25T22:29:53.491Z,11.74
2023-03-25T22:32:20.903Z,11.70
2023-03-25T22:34:48.090Z,11.71
2023-03-25T22:37:15.875Z,11.64
2023-03-25T22:39:43.429Z,11.50
2023-03-25T22:42:10.399Z,11.40
2023-03-25T22:44:38.084Z,11.35
2023-03-25T22:47:05.358Z,11.30
2023-03-25T22:49:32.936Z,11.22
2023-03-25T22:52:01.468Z,11.22
2023-03-25T22:54:29.040Z,11.21
2023-03-25T22:56:56.339Z,11.13
2023-03-25T22:59:23.663Z,11.16
2023-03-25T23:01:50.964Z,11.10
2023-03-25T23:04:18.351Z,11.10
2023-03-25T23:06:53.933Z,11.06
2023-03-25T23:09:45.349Z,11.08
2023-03-25T23:12:15.969Z,11.08
2023-03-25T23:14:49.412Z,11.06
2023-03-25T23:17:17.201Z,11.09
2023-03-25T23:19:45.665Z,11.15
2023-03-25T23:22:13.258Z,11.09
2023-03-25T23:24:43.621Z,11.15
2023-03-25T23:27:12.441Z,11.05
2023-03-25T23:29:40.138Z,11.04
2023-03-25T23:32:08.980Z,11.01
2023-03-25T23:34:38.512Z,11.01
2023-03-25T23:37:07.813Z,10.99
2023-03-25T23:39:36.094Z,10.97
2023-03-25T23:42:03.393Z,10.92
2023-03-25T23:44:31.318Z,10.95
2023-03-25T23:46:58.814Z,11.04
2023-03-25T23:49:26.121Z,11.05
2023-03-25T23:51:53.423Z,11.18
2023-03-25T23:54:20.978Z,11.25
2023-03-25T23:56:48.150Z,11.32
2023-03-25T23:59:15.332Z,11.36
